Time;durP1;ratioP1;P1;durP2;ratioP2;P2;SDS_P1;SDS_P2;PMS_P1;PMS_P2;Temp;Humidity;BMP_temperature;BMP_pressure;BME280_temperature;BME280_humidity;BME280_pressure;Samples;Min_cycle;Max_cycle;Signal;HPM_P1;HPM_P2
2021/01/11 00:02:22;;;;;;;24.50;15.60;;;;;;;;;;5112382;28;20749;-52
2021/01/11 00:04:48;;;;;;;30.05;16.85;;;;;;;;;;5112464;28;20391;-50
2021/01/11 00:07:14;;;;;;;25.67;15.30;;;;;;;;;;5111009;28;20216;-52
2021/01/11 00:09:40;;;;;;;31.67;15.70;;;;;;;;;;5112036;28;20219;-52
2021/01/11 00:12:06;;;;;;;29.08;15.40;;;;;;;;;;5112077;28;20211;-52
2021/01/11 00:14:33;;;;;;;24.23;15.48;;;;;;;;;;5106838;28;20256;-50
2021/01/11 00:16:59;;;;;;;34.17;17.05;;;;;;;;;;5111458;28;20207;-51
2021/01/11 00:19:25;;;;;;;24.47;14.77;;;;;;;;;;5111719;28;20173;-52
2021/01/11 00:21:51;;;;;;;32.37;15.47;;;;;;;;;;5111901;28;20395;-51
2021/01/11 00:24:17;;;;;;;27.23;16.23;;;;;;;;;;5111624;28;20839;-51
2021/01/11 00:26:52;;;;;;;31.00;16.70;;;;;;;;;;5111459;28;20425;-52
2021/01/11 00:29:19;;;;;;;32.13;16.00;;;;;;;;;;5111413;28;20540;-50
2021/01/11 00:31:45;;;;;;;26.20;14.18;;;;;;;;;;5111665;28;20160;-50
2021/01/11 00:34:11;;;;;;;23.45;16.38;;;;;;;;;;5111680;28;20175;-51
2021/01/11 00:36:38;;;;;;;29.33;16.40;;;;;;;;;;5111189;28;20245;-50
2021/01/11 00:39:04;;;;;;;26.25;15.52;;;;;;;;;;5111537;28;20172;-51
2021/01/11 00:41:30;;;;;;;26.73;15.02;;;;;;;;;;5111297;28;20173;-51
2021/01/11 00:43:56;;;;;;;25.90;15.90;;;;;;;;;;5106907;28;20213;-51
2021/01/11 00:46:26;;;;;;;24.53;15.80;;;;;;;;;;5111063;28;20679;-50
2021/01/11 00:48:52;;;;;;;31.73;15.75;;;;;;;;;;5111338;28;20458;-51
2021/01/11 00:51:18;;;;;;;28.10;15.57;;;;;;;;;;5092990;28;20181;-51
2021/01/11 00:53:44;;;;;;;26.90;17.20;;;;;;;;;;5111324;28;20394;-51
2021/01/11 00:56:13;;;;;;;26.50;14.88;;;;;;;;;;5110986;28;20169;-52
2021/01/11 00:58:40;;;;;;;34.03;16.20;;;;;;;;;;5111238;28;20168;-50
2021/01/11 01:01:06;;;;;;;27.05;15.80;;;;;;;;;;5111403;28;20194;-50
2021/01/11 01:03:32;;;;;;;25.88;15.50;;;;;;;;;;5111091;28;20531;-50
2021/01/11 01:05:59;;;;;;;30.35;16.85;;;;;;;;;;5110844;28;20169;-49
2021/01/11 01:08:25;;;;;;;26.52;14.93;;;;;;;;;;5111024;28;20253;-52
2021/01/11 01:10:51;;;;;;;26.80;17.07;;;;;;;;;;5111151;28;20196;-51
2021/01/11 01:13:16;;;;;;;27.50;15.93;;;;;;;;;;5111063;28;20395;-51
2021/01/11 01:15:42;;;;;;;31.27;16.50;;;;;;;;;;5106266;28;20930;-52
2021/01/11 01:18:08;;;;;;;25.80;16.37;;;;;;;;;;5109779;28;20458;-51
2021/01/11 01:20:34;;;;;;;24.35;15.40;;;;;;;;;;5115384;28;20430;-50
2021/01/11 01:23:00;;;;;;;27.40;15.17;;;;;;;;;;5115304;28;20202;-51
2021/01/11 01:25:26;;;;;;;20.77;14.27;;;;;;;;;;5114805;28;20402;-51
2021/01/11 01:27:52;;;;;;;25.93;16.27;;;;;;;;;;5115083;28;20523;-50
2021/01/11 01:30:18;;;;;;;27.97;16.43;;;;;;;;;;5115010;28;20386;-49
2021/01/11 01:32:44;;;;;;;32.67;16.80;;;;;;;;;;5115053;28;20772;-51
2021/01/11 01:35:11;;;;;;;31.60;17.65;;;;;;;;;;5114934;28;20240;-51
2021/01/11 01:37:37;;;;;;;35.28;17.90;;;;;;;;;;5114806;28;20185;-51
2021/01/11 01:40:04;;;;;;;28.92;17.33;;;;;;;;;;5114797;28;20163;-51
2021/01/11 01:42:30;;;;;;;35.88;18.52;;;;;;;;;;5115223;28;20252;-51
2021/01/11 01:44:56;;;;;;;35.57;17.50;;;;;;;;;;5113107;28;20195;-52
2021/01/11 01:47:22;;;;;;;36.60;19.00;;;;;;;;;;5113244;28;20924;-52
2021/01/11 01:49:49;;;;;;;28.10;17.53;;;;;;;;;;5114875;28;20453;-50
2021/01/11 01:52:15;;;;;;;29.20;17.90;;;;;;;;;;5114720;28;20395;-49
2021/01/11 01:54:41;;;;;;;31.67;18.63;;;;;;;;;;5115111;28;20172;-49
2021/01/11 01:57:08;;;;;;;26.73;17.83;;;;;;;;;;5114386;28;20270;-50
2021/01/11 01:59:34;;;;;;;28.60;18.92;;;;;;;;;;5114832;28;20161;-51
2021/01/11 02:02:00;;;;;;;30.92;16.83;;;;;;;;;;5113758;28;20168;-51
2021/01/11 02:04:26;;;;;;;34.97;17.63;;;;;;;;;;5113980;28;20174;-51
2021/01/11 02:06:56;;;;;;;28.87;16.60;;;;;;;;;;5113541;28;20582;-51
2021/01/11 02:09:45;;;;;;;25.45;14.85;;;;;;;;;;5114265;28;20503;-50
2021/01/11 02:12:17;;;;;;;31.33;16.65;;;;;;;;;;5072176;28;20668;-51
2021/01/11 02:15:01;;;;;;;35.10;18.73;;;;;;;;;;5114364;28;20251;-51
2021/01/11 02:17:36;;;;;;;26.95;15.68;;;;;;;;;;5113558;28;20261;-50
2021/01/11 02:20:20;;;;;;;29.83;17.92;;;;;;;;;;5114228;28;20167;-51
2021/01/11 02:23:03;;;;;;;32.17;17.88;;;;;;;;;;5114014;28;20173;-50
2021/01/11 02:25:39;;;;;;;32.28;18.85;;;;;;;;;;5113923;28;20183;-51
2021/01/11 02:28:15;;;;;;;29.85;18.38;;;;;;;;;;5113767;28;20246;-52
2021/01/11 02:30:42;;;;;;;29.95;17.38;;;;;;;;;;5112764;28;20162;-50
2021/01/11 02:33:11;;;;;;;28.85;17.42;;;;;;;;;;5113967;28;20175;-51
2021/01/11 02:35:46;;;;;;;29.27;17.95;;;;;;;;;;5113504;28;20164;-52
2021/01/11 02:38:12;;;;;;;32.08;16.65;;;;;;;;;;5113721;28;20683;-50
2021/01/11 02:40:38;;;;;;;35.08;19.42;;;;;;;;;;5111884;28;20259;-52
2021/01/11 02:43:04;;;;;;;31.47;17.47;;;;;;;;;;5111601;28;20251;-51
2021/01/11 02:45:30;;;;;;;36.88;19.75;;;;;;;;;;5111881;28;20434;-50
2021/01/11 02:48:15;;;;;;;27.85;17.20;;;;;;;;;;5113529;28;20207;-50
2021/01/11 02:51:05;;;;;;;35.15;18.60;;;;;;;;;;5113499;28;20226;-52
2021/01/11 02:53:46;;;;;;;31.95;19.83;;;;;;;;;;5103140;28;20173;-50
2021/01/11 02:56:19;;;;;;;37.60;21.10;;;;;;;;;;5112689;28;20186;-50
2021/01/11 02:58:48;;;;;;;31.65;18.15;;;;;;;;;;5113568;28;20222;-52
2021/01/11 03:01:17;;;;;;;35.17;20.63;;;;;;;;;;5113234;28;20185;-50
2021/01/11 03:03:44;;;;;;;34.08;18.88;;;;;;;;;;5108827;28;20267;-51
2021/01/11 03:06:13;;;;;;;38.55;20.05;;;;;;;;;;5112927;28;20714;-50
2021/01/11 03:08:39;;;;;;;40.40;19.95;;;;;;;;;;5113320;28;20191;-52
2021/01/11 03:11:05;;;;;;;38.55;20.63;;;;;;;;;;5113201;28;20175;-52
2021/01/11 03:13:31;;;;;;;34.00;19.13;;;;;;;;;;5113262;28;20171;-52
2021/01/11 03:15:57;;;;;;;37.60;20.80;;;;;;;;;;5112792;28;20439;-50
2021/01/11 03:18:23;;;;;;;39.23;20.60;;;;;;;;;;5113168;28;20410;-50
2021/01/11 03:20:49;;;;;;;35.17;19.55;;;;;;;;;;5113221;28;20489;-50
2021/01/11 03:23:15;;;;;;;37.90;18.77;;;;;;;;;;5112925;28;20257;-51
2021/01/11 03:25:41;;;;;;;40.30;21.33;;;;;;;;;;5112784;28;20530;-50
2021/01/11 03:28:07;;;;;;;35.75;21.23;;;;;;;;;;5112603;28;20452;-50
2021/01/11 03:30:34;;;;;;;39.35;23.58;;;;;;;;;;5112802;28;20251;-50
2021/01/11 03:33:00;;;;;;;35.55;20.92;;;;;;;;;;5108849;28;20169;-51
2021/01/11 03:35:28;;;;;;;37.00;23.20;;;;;;;;;;5111174;28;20658;-50
2021/01/11 03:37:54;;;;;;;42.75;23.98;;;;;;;;;;5112694;28;20426;-50
2021/01/11 03:40:20;;;;;;;50.67;22.83;;;;;;;;;;5112630;28;20173;-49
2021/01/11 03:42:45;;;;;;;41.23;23.17;;;;;;;;;;5112269;28;20916;-49
2021/01/11 03:45:12;;;;;;;38.80;21.47;;;;;;;;;;5112258;28;20403;-48
2021/01/11 03:47:38;;;;;;;44.65;25.23;;;;;;;;;;5112336;28;20964;-50
2021/01/11 03:50:04;;;;;;;37.10;21.15;;;;;;;;;;5112352;28;20169;-50
2021/01/11 03:52:33;;;;;;;48.67;23.25;;;;;;;;;;5112914;28;20167;-49
2021/01/11 03:54:59;;;;;;;45.72;22.05;;;;;;;;;;5112238;28;20158;-48
2021/01/11 03:57:28;;;;;;;41.80;24.50;;;;;;;;;;5111912;28;20238;-48
2021/01/11 03:59:54;;;;;;;37.70;22.75;;;;;;;;;;5112108;28;20399;-48
2021/01/11 04:02:20;;;;;;;35.20;21.80;;;;;;;;;;5112235;28;20301;-49
2021/01/11 04:04:46;;;;;;;43.58;23.27;;;;;;;;;;5105345;28;20433;-49
2021/01/11 04:07:12;;;;;;;34.28;19.20;;;;;;;;;;5111714;28;20264;-48
2021/01/11 04:09:38;;;;;;;36.83;20.87;;;;;;;;;;5112002;28;20279;-48
2021/01/11 04:12:04;;;;;;;36.13;20.80;;;;;;;;;;5111861;28;20456;-50
2021/01/11 04:14:33;;;;;;;35.00;18.83;;;;;;;;;;5111868;28;20394;-50
2021/01/11 04:16:59;;;;;;;35.15;19.45;;;;;;;;;;5111403;28;20672;-49
2021/01/11 04:19:25;;;;;;;27.43;16.47;;;;;;;;;;5111935;28;20204;-50
2021/01/11 04:21:51;;;;;;;42.07;19.50;;;;;;;;;;5111770;28;20410;-50
2021/01/11 04:24:17;;;;;;;27.73;16.50;;;;;;;;;;5111785;28;20410;-51
2021/01/11 04:26:46;;;;;;;26.00;14.43;;;;;;;;;;5111215;28;20643;-48
2021/01/11 04:29:12;;;;;;;31.73;16.50;;;;;;;;;;5111651;28;21223;-48
2021/01/11 04:31:38;;;;;;;28.27;15.57;;;;;;;;;;5111693;28;20263;-48
2021/01/11 04:34:07;;;;;;;32.63;18.55;;;;;;;;;;5108046;28;20503;-48
2021/01/11 04:36:36;;;;;;;26.83;16.08;;;;;;;;;;5107724;28;20244;-49
2021/01/11 04:39:02;;;;;;;30.13;16.88;;;;;;;;;;5111415;28;20550;-52
2021/01/11 04:41:34;;;;;;;28.10;16.70;;;;;;;;;;5111760;28;20255;-51
2021/01/11 04:44:01;;;;;;;28.42;18.45;;;;;;;;;;5111338;28;20168;-49
2021/01/11 04:46:27;;;;;;;29.80;17.83;;;;;;;;;;5111157;28;20644;-48
2021/01/11 04:48:53;;;;;;;29.90;16.50;;;;;;;;;;5111253;28;20199;-49
2021/01/11 04:51:19;;;;;;;29.67;17.00;;;;;;;;;;5111379;28;20391;-49
2021/01/11 04:53:47;;;;;;;35.00;17.40;;;;;;;;;;5110462;28;20405;-49
2021/01/11 04:56:13;;;;;;;41.15;18.42;;;;;;;;;;5111055;28;20402;-48
2021/01/11 04:58:59;;;;;;;30.53;15.70;;;;;;;;;;5111111;28;20168;-50
2021/01/11 05:01:27;;;;;;;32.00;18.17;;;;;;;;;;5110615;28;20428;-51
2021/01/11 05:03:58;;;;;;;39.55;17.38;;;;;;;;;;5111329;28;20164;-49
2021/01/11 05:06:24;;;;;;;33.90;17.65;;;;;;;;;;5105515;28;20545;-48
2021/01/11 05:08:53;;;;;;;35.92;19.83;;;;;;;;;;5111326;28;20212;-48
2021/01/11 05:11:22;;;;;;;28.50;18.13;;;;;;;;;;5111065;28;20711;-49
2021/01/11 05:13:50;;;;;;;35.85;18.60;;;;;;;;;;5111168;28;20225;-48
2021/01/11 05:16:22;;;;;;;36.50;18.80;;;;;;;;;;5110500;28;20197;-48
2021/01/11 05:18:48;;;;;;;34.90;19.67;;;;;;;;;;5111071;28;20267;-49
2021/01/11 05:21:34;;;;;;;33.13;19.80;;;;;;;;;;5111066;28;20663;-50
2021/01/11 05:24:00;;;;;;;30.10;17.27;;;;;;;;;;5111102;28;20501;-52
2021/01/11 05:26:41;;;;;;;32.80;18.80;;;;;;;;;;5110691;28;20716;-51
2021/01/11 05:29:18;;;;;;;31.15;18.20;;;;;;;;;;5110997;28;20537;-48
2021/01/11 05:31:51;;;;;;;36.97;18.55;;;;;;;;;;5110828;28;20161;-48
2021/01/11 05:34:17;;;;;;;32.45;18.75;;;;;;;;;;5111161;28;20165;-48
2021/01/11 05:36:44;;;;;;;34.22;17.90;;;;;;;;;;5106205;28;20288;-48
2021/01/11 05:39:10;;;;;;;35.17;17.25;;;;;;;;;;5111356;28;20248;-48
2021/01/11 05:41:40;;;;;;;30.23;16.90;;;;;;;;;;5111132;28;20208;-48
2021/01/11 05:44:12;;;;;;;38.22;18.17;;;;;;;;;;5110979;28;20433;-48
2021/01/11 05:46:38;;;;;;;32.17;17.15;;;;;;;;;;5110373;28;20196;-48
2021/01/11 05:49:06;;;;;;;33.85;19.83;;;;;;;;;;5110166;28;20193;-51
2021/01/11 05:51:32;;;;;;;33.38;19.83;;;;;;;;;;5110123;28;20165;-53
2021/01/11 05:53:58;;;;;;;33.10;18.10;;;;;;;;;;5110018;28;20239;-51
2021/01/11 05:56:25;;;;;;;35.90;20.08;;;;;;;;;;5109835;28;20246;-51
2021/01/11 05:59:07;;;;;;;36.22;20.55;;;;;;;;;;5109941;28;20226;-49
2021/01/11 06:01:34;;;;;;;37.05;21.05;;;;;;;;;;5109996;28;20599;-50
2021/01/11 06:04:00;;;;;;;35.60;21.13;;;;;;;;;;5110092;28;20169;-49
2021/01/11 06:06:26;;;;;;;32.65;19.20;;;;;;;;;;5111229;28;20193;-50
2021/01/11 06:08:53;;;;;;;29.60;17.67;;;;;;;;;;5113444;28;20305;-48
2021/01/11 06:11:20;;;;;;;45.88;19.95;;;;;;;;;;5113887;28;20229;-48
2021/01/11 06:13:48;;;;;;;38.90;22.08;;;;;;;;;;5113716;28;20161;-48
2021/01/11 06:16:16;;;;;;;37.78;21.05;;;;;;;;;;5113088;28;20806;-51
2021/01/11 06:18:43;;;;;;;36.85;20.55;;;;;;;;;;5113777;28;20161;-48
2021/01/11 06:21:11;;;;;;;43.28;21.50;;;;;;;;;;5114032;28;20184;-48
2021/01/11 06:23:38;;;;;;;37.78;22.55;;;;;;;;;;5114216;28;20169;-48
2021/01/11 06:26:24;;;;;;;40.58;23.25;;;;;;;;;;5113535;28;20173;-48
2021/01/11 06:28:50;;;;;;;40.13;20.90;;;;;;;;;;5113909;28;20224;-51
2021/01/11 06:31:17;;;;;;;38.37;20.57;;;;;;;;;;5113819;28;20200;-52
2021/01/11 06:33:43;;;;;;;36.17;21.25;;;;;;;;;;5113917;28;20882;-49
2021/01/11 06:36:26;;;;;;;43.97;22.02;;;;;;;;;;5111465;28;20173;-48
2021/01/11 06:38:52;;;;;;;40.95;21.95;;;;;;;;;;5113923;28;20709;-50
2021/01/11 06:41:19;;;;;;;38.58;18.75;;;;;;;;;;5113665;28;20663;-47
2021/01/11 06:43:52;;;;;;;39.50;22.27;;;;;;;;;;5113807;28;20176;-49
2021/01/11 06:46:30;;;;;;;36.25;20.65;;;;;;;;;;5113363;28;20185;-48
2021/01/11 06:48:57;;;;;;;41.15;21.63;;;;;;;;;;5113515;28;20203;-48
2021/01/11 06:51:30;;;;;;;37.90;21.85;;;;;;;;;;5113621;28;20274;-50
2021/01/11 06:54:15;;;;;;;43.45;21.40;;;;;;;;;;5113398;28;20185;-49
2021/01/11 06:56:42;;;;;;;38.85;22.15;;;;;;;;;;5113225;28;20228;-48
2021/01/11 06:59:08;;;;;;;44.97;21.52;;;;;;;;;;5113392;28;20580;-51
2021/01/11 07:01:38;;;;;;;35.60;20.80;;;;;;;;;;5113492;28;20535;-49
2021/01/11 07:04:04;;;;;;;40.83;21.42;;;;;;;;;;5113360;28;20525;-51
2021/01/11 07:06:34;;;;;;;39.95;21.45;;;;;;;;;;5107712;28;20295;-51
2021/01/11 07:09:10;;;;;;;38.38;21.17;;;;;;;;;;5113073;28;20204;-51
2021/01/11 07:11:38;;;;;;;36.88;20.23;;;;;;;;;;5113518;28;20168;-51
2021/01/11 07:14:05;;;;;;;40.25;22.38;;;;;;;;;;5113206;28;20165;-51
2021/01/11 07:16:40;;;;;;;40.53;20.85;;;;;;;;;;5112233;28;20199;-50
2021/01/11 07:19:06;;;;;;;35.10;21.50;;;;;;;;;;5113083;28;20175;-53
2021/01/11 07:21:35;;;;;;;35.85;21.02;;;;;;;;;;5113023;28;20165;-51
2021/01/11 07:24:02;;;;;;;35.45;20.02;;;;;;;;;;5113208;28;20193;-52
2021/01/11 07:26:28;;;;;;;41.20;21.15;;;;;;;;;;5112535;28;20181;-48
2021/01/11 07:28:55;;;;;;;41.05;22.95;;;;;;;;;;5112877;28;20192;-48
2021/01/11 07:31:29;;;;;;;43.08;24.95;;;;;;;;;;5112772;28;20562;-52
2021/01/11 07:34:01;;;;;;;32.33;19.77;;;;;;;;;;5109813;28;20161;-52
2021/01/11 07:36:27;;;;;;;37.10;22.27;;;;;;;;;;5110592;28;20696;-48
2021/01/11 07:39:05;;;;;;;38.63;21.63;;;;;;;;;;5112696;28;20169;-48
2021/01/11 07:41:32;;;;;;;38.22;21.20;;;;;;;;;;5112575;28;20236;-48
2021/01/11 07:44:10;;;;;;;37.05;21.67;;;;;;;;;;5112614;28;20200;-49
2021/01/11 07:46:36;;;;;;;41.63;23.33;;;;;;;;;;5112057;28;20206;-48
2021/01/11 07:49:12;;;;;;;44.85;21.70;;;;;;;;;;5112384;28;20205;-49
2021/01/11 07:51:38;;;;;;;50.38;24.20;;;;;;;;;;5112361;28;20222;-48
2021/01/11 07:54:13;;;;;;;43.05;22.70;;;;;;;;;;5112351;28;20172;-49
2021/01/11 07:56:39;;;;;;;36.25;21.58;;;;;;;;;;5112034;28;20195;-49
2021/01/11 07:59:06;;;;;;;44.55;24.35;;;;;;;;;;5112281;28;20167;-52
2021/01/11 08:01:37;;;;;;;35.25;21.50;;;;;;;;;;5112097;28;20176;-48
2021/01/11 08:04:03;;;;;;;40.13;21.38;;;;;;;;;;5112241;28;20644;-49
2021/01/11 08:06:29;;;;;;;36.70;20.23;;;;;;;;;;5107384;28;20223;-51
2021/01/11 08:08:55;;;;;;;33.40;20.23;;;;;;;;;;5111910;28;20227;-49
2021/01/11 08:11:22;;;;;;;32.80;18.13;;;;;;;;;;5095316;28;20762;-51
2021/01/11 08:13:48;;;;;;;31.42;16.45;;;;;;;;;;5091367;28;20695;-48
2021/01/11 08:16:14;;;;;;;33.40;18.90;;;;;;;;;;5091197;28;20178;-48
2021/01/11 08:18:41;;;;;;;31.20;18.95;;;;;;;;;;5091406;28;20165;-48
2021/01/11 08:21:11;;;;;;;34.20;19.63;;;;;;;;;;5091649;28;20625;-48
2021/01/11 08:23:38;;;;;;;29.70;19.02;;;;;;;;;;5091395;28;20170;-48
2021/01/11 08:26:07;;;;;;;31.70;17.90;;;;;;;;;;5091083;28;20177;-50
2021/01/11 08:28:33;;;;;;;39.72;20.50;;;;;;;;;;5090487;28;20205;-48
2021/01/11 08:31:00;;;;;;;36.33;21.17;;;;;;;;;;5091262;28;20660;-48
2021/01/11 08:33:27;;;;;;;33.72;18.52;;;;;;;;;;5091458;28;20180;-52
2021/01/11 08:35:53;;;;;;;33.08;18.52;;;;;;;;;;5107286;28;20176;-48
2021/01/11 08:38:19;;;;;;;29.23;18.50;;;;;;;;;;5111578;28;20188;-48
2021/01/11 08:40:49;;;;;;;29.48;19.15;;;;;;;;;;5111519;28;20395;-48
2021/01/11 08:43:23;;;;;;;31.48;19.33;;;;;;;;;;5111549;28;20165;-51
2021/01/11 08:45:52;;;;;;;30.15;18.58;;;;;;;;;;5108049;28;20156;-53
2021/01/11 08:48:24;;;;;;;30.80;18.30;;;;;;;;;;5090829;28;20205;-51
2021/01/11 08:50:50;;;;;;;32.60;18.50;;;;;;;;;;5091136;28;20173;-48
2021/01/11 08:53:23;;;;;;;30.13;16.43;;;;;;;;;;5090855;28;20276;-49
2021/01/11 08:56:04;;;;;;;41.80;18.40;;;;;;;;;;5090789;28;20401;-52
2021/01/11 08:58:30;;;;;;;31.88;19.38;;;;;;;;;;5091001;28;20203;-49
2021/01/11 09:01:08;;;;;;;32.00;18.27;;;;;;;;;;5091041;28;20165;-48
2021/01/11 09:03:52;;;;;;;32.22;18.17;;;;;;;;;;5090828;28;20165;-49
2021/01/11 09:06:37;;;;;;;28.00;16.48;;;;;;;;;;5104730;28;20261;-48
2021/01/11 09:09:06;;;;;;;37.22;19.63;;;;;;;;;;5110980;28;20664;-51
2021/01/11 09:11:32;;;;;;;30.48;18.45;;;;;;;;;;5111160;28;20544;-52
2021/01/11 09:14:05;;;;;;;29.80;17.70;;;;;;;;;;5110946;28;20160;-48
2021/01/11 09:16:32;;;;;;;29.45;17.95;;;;;;;;;;5110560;28;20440;-49
2021/01/11 09:19:05;;;;;;;30.67;18.05;;;;;;;;;;5110956;28;20180;-51
2021/01/11 09:21:31;;;;;;;31.67;17.20;;;;;;;;;;5110944;28;20655;-51
2021/01/11 09:23:57;;;;;;;30.93;17.73;;;;;;;;;;5110921;28;20240;-52
2021/01/11 09:26:23;;;;;;;32.17;17.48;;;;;;;;;;5110742;28;20502;-52
2021/01/11 09:28:49;;;;;;;32.00;18.43;;;;;;;;;;5092023;28;20659;-48
2021/01/11 09:31:16;;;;;;;30.90;17.63;;;;;;;;;;5080753;28;20404;-51
2021/01/11 09:33:43;;;;;;;31.00;17.17;;;;;;;;;;5072881;28;20511;-51
2021/01/11 09:36:09;;;;;;;29.35;17.10;;;;;;;;;;5109268;28;20177;-50
2021/01/11 09:38:35;;;;;;;29.48;15.55;;;;;;;;;;5110913;28;20173;-51
2021/01/11 09:41:01;;;;;;;31.08;15.95;;;;;;;;;;5114236;28;20195;-51
2021/01/11 09:43:27;;;;;;;28.13;17.93;;;;;;;;;;5095387;28;20217;-51
2021/01/11 09:45:53;;;;;;;28.93;17.40;;;;;;;;;;5114576;28;20446;-51
2021/01/11 09:48:19;;;;;;;29.33;16.10;;;;;;;;;;5114691;28;20496;-51
2021/01/11 09:50:44;;;;;;;27.20;14.80;;;;;;;;;;5114548;28;20390;-50
2021/01/11 09:53:11;;;;;;;24.90;16.27;;;;;;;;;;5115076;28;21006;-51
2021/01/11 09:55:37;;;;;;;32.70;16.40;;;;;;;;;;5114493;28;20405;-51
2021/01/11 09:58:04;;;;;;;24.20;14.10;;;;;;;;;;5114460;28;20672;-51
2021/01/11 10:00:30;;;;;;;23.35;15.30;;;;;;;;;;5114682;28;20478;-50
2021/01/11 10:02:57;;;;;;;26.73;14.82;;;;;;;;;;5114460;28;20173;-51
2021/01/11 10:05:24;;;;;;;23.25;14.52;;;;;;;;;;5109922;28;20169;-52
2021/01/11 10:07:51;;;;;;;26.55;14.88;;;;;;;;;;5114341;28;20185;-51
2021/01/11 10:10:17;;;;;;;28.35;15.70;;;;;;;;;;5114502;28;20165;-51
2021/01/11 10:12:43;;;;;;;20.90;13.10;;;;;;;;;;5114594;28;20165;-51
2021/01/11 10:15:10;;;;;;;21.98;14.02;;;;;;;;;;5094452;28;20891;-49
2021/01/11 10:17:38;;;;;;;25.92;15.85;;;;;;;;;;5093691;28;20208;-50
2021/01/11 10:20:06;;;;;;;22.05;13.38;;;;;;;;;;5093884;28;20172;-51
2021/01/11 10:22:32;;;;;;;26.38;14.18;;;;;;;;;;5094040;28;20625;-51
2021/01/11 10:24:59;;;;;;;21.00;11.77;;;;;;;;;;5093799;28;20212;-51
2021/01/11 10:27:25;;;;;;;23.55;12.85;;;;;;;;;;5093446;28;20228;-51
2021/01/11 10:29:51;;;;;;;22.20;13.57;;;;;;;;;;5093547;28;20224;-50
2021/01/11 10:32:18;;;;;;;18.50;12.73;;;;;;;;;;5093696;28;20404;-51
2021/01/11 10:34:44;;;;;;;23.08;11.90;;;;;;;;;;5097254;28;20480;-49
2021/01/11 10:37:10;;;;;;;24.80;14.40;;;;;;;;;;5090255;28;20189;-50
2021/01/11 10:39:36;;;;;;;27.58;13.13;;;;;;;;;;5075048;28;20430;-50
2021/01/11 10:42:02;;;;;;;19.38;13.30;;;;;;;;;;5093046;28;20244;-50
2021/01/11 10:44:28;;;;;;;19.23;12.02;;;;;;;;;;5092985;28;20173;-50
2021/01/11 10:46:55;;;;;;;22.23;13.25;;;;;;;;;;5092849;28;20189;-49
2021/01/11 10:49:21;;;;;;;23.85;13.50;;;;;;;;;;5092023;28;20208;-51
2021/01/11 10:51:48;;;;;;;20.75;13.55;;;;;;;;;;5091709;28;20219;-51
2021/01/11 10:54:14;;;;;;;21.55;13.50;;;;;;;;;;5090682;28;20177;-50
2021/01/11 10:56:40;;;;;;;25.07;13.83;;;;;;;;;;5091736;28;20254;-50
2021/01/11 10:59:06;;;;;;;23.27;12.60;;;;;;;;;;5092538;28;20408;-50
2021/01/11 11:01:32;;;;;;;21.42;14.20;;;;;;;;;;5093005;28;20399;-50
2021/01/11 11:03:58;;;;;;;22.02;14.57;;;;;;;;;;5091212;28;20266;-51
2021/01/11 11:06:27;;;;;;;18.75;11.98;;;;;;;;;;5102691;28;20209;-51
2021/01/11 11:08:53;;;;;;;17.42;12.63;;;;;;;;;;5092400;28;20331;-51
2021/01/11 11:11:20;;;;;;;22.85;13.30;;;;;;;;;;5091955;28;20176;-49
2021/01/11 11:13:46;;;;;;;20.17;12.57;;;;;;;;;;5091441;28;20197;-51
2021/01/11 11:16:12;;;;;;;22.00;12.63;;;;;;;;;;5091794;28;20560;-51
2021/01/11 11:18:39;;;;;;;19.23;12.63;;;;;;;;;;5092226;28;20903;-50
2021/01/11 11:21:06;;;;;;;25.05;13.52;;;;;;;;;;5092533;28;20197;-51
2021/01/11 11:23:32;;;;;;;20.27;13.10;;;;;;;;;;5092463;28;20223;-51
2021/01/11 11:25:57;;;;;;;22.73;13.43;;;;;;;;;;5091979;28;20169;-51
2021/01/11 11:28:24;;;;;;;20.42;11.75;;;;;;;;;;5092230;28;20542;-51
2021/01/11 11:30:50;;;;;;;20.52;12.30;;;;;;;;;;5092547;28;20170;-51
2021/01/11 11:33:16;;;;;;;19.00;11.93;;;;;;;;;;5092294;28;20219;-51
2021/01/11 11:35:42;;;;;;;20.23;12.00;;;;;;;;;;5105008;28;20958;-51
2021/01/11 11:38:09;;;;;;;18.92;12.02;;;;;;;;;;5112020;28;20425;-50
2021/01/11 11:40:36;;;;;;;18.75;12.15;;;;;;;;;;5112661;28;20712;-51
2021/01/11 11:43:03;;;;;;;22.73;13.02;;;;;;;;;;5097949;28;20656;-51
2021/01/11 11:45:29;;;;;;;17.77;12.15;;;;;;;;;;5080817;28;20168;-51
2021/01/11 11:47:55;;;;;;;15.70;11.03;;;;;;;;;;5071556;28;20188;-52
2021/01/11 11:50:21;;;;;;;22.58;13.05;;;;;;;;;;5071784;28;20449;-51
2021/01/11 11:52:47;;;;;;;16.80;12.70;;;;;;;;;;5071775;28;20539;-51
2021/01/11 11:55:14;;;;;;;22.00;12.60;;;;;;;;;;5082062;28;20426;-53
2021/01/11 11:57:41;;;;;;;17.65;11.50;;;;;;;;;;5091757;28;20503;-48
2021/01/11 12:00:08;;;;;;;17.73;12.05;;;;;;;;;;5091762;28;20174;-49
2021/01/11 12:02:34;;;;;;;23.02;11.48;;;;;;;;;;5091690;28;20166;-48
2021/01/11 12:05:00;;;;;;;17.77;12.40;;;;;;;;;;5078184;28;20545;-49
2021/01/11 12:07:27;;;;;;;21.63;11.38;;;;;;;;;;5111670;28;20420;-48
2021/01/11 12:09:54;;;;;;;17.55;11.40;;;;;;;;;;5112167;28;20223;-47
2021/01/11 12:12:20;;;;;;;14.30;10.70;;;;;;;;;;5111985;28;20685;-51
2021/01/11 12:14:46;;;;;;;14.05;9.48;;;;;;;;;;5111959;28;20747;-48
2021/01/11 12:17:12;;;;;;;14.13;8.85;;;;;;;;;;5111391;28;20220;-48
2021/01/11 12:19:38;;;;;;;13.48;10.30;;;;;;;;;;5111712;28;20163;-48
2021/01/11 12:22:13;;;;;;;14.90;10.73;;;;;;;;;;5111713;28;20552;-50
2021/01/11 12:24:39;;;;;;;18.98;11.00;;;;;;;;;;5111927;28;20467;-48
2021/01/11 12:27:06;;;;;;;19.23;10.88;;;;;;;;;;5111548;28;20767;-48
2021/01/11 12:29:32;;;;;;;14.98;10.52;;;;;;;;;;5111386;28;20204;-50
2021/01/11 12:31:58;;;;;;;13.37;9.83;;;;;;;;;;5111280;28;20161;-51
2021/01/11 12:34:24;;;;;;;11.27;8.18;;;;;;;;;;5109937;28;20420;-51
2021/01/11 12:36:50;;;;;;;19.13;10.00;;;;;;;;;;5097616;28;20259;-48
2021/01/11 12:39:16;;;;;;;20.98;11.60;;;;;;;;;;5090898;28;20488;-48
2021/01/11 12:41:42;;;;;;;14.90;10.65;;;;;;;;;;5091323;28;20226;-48
2021/01/11 12:44:08;;;;;;;17.70;10.30;;;;;;;;;;5091105;28;20174;-48
2021/01/11 12:46:34;;;;;;;12.65;9.80;;;;;;;;;;5090499;28;20440;-48
2021/01/11 12:49:01;;;;;;;20.75;9.80;;;;;;;;;;5090824;28;20225;-49
2021/01/11 12:51:27;;;;;;;9.43;8.15;;;;;;;;;;5090890;28;20639;-48
2021/01/11 12:53:54;;;;;;;14.23;9.82;;;;;;;;;;5091170;28;20169;-49
2021/01/11 12:56:21;;;;;;;14.10;9.73;;;;;;;;;;5090392;28;20186;-51
2021/01/11 12:58:48;;;;;;;13.50;9.73;;;;;;;;;;5088276;28;20249;-49
2021/01/11 13:01:21;;;;;;;12.63;9.30;;;;;;;;;;5090822;28;20171;-48
2021/01/11 13:03:47;;;;;;;14.10;9.55;;;;;;;;;;5090787;28;20244;-49
2021/01/11 13:06:18;;;;;;;13.40;10.10;;;;;;;;;;5106068;28;20203;-50
2021/01/11 13:08:44;;;;;;;15.13;10.93;;;;;;;;;;5110693;28;20257;-51
2021/01/11 13:11:17;;;;;;;12.17;8.83;;;;;;;;;;5111227;28;20165;-48
2021/01/11 13:13:46;;;;;;;15.43;10.48;;;;;;;;;;5110548;28;20399;-49
2021/01/11 13:16:13;;;;;;;13.23;8.63;;;;;;;;;;5110559;28;20216;-48
2021/01/11 13:18:39;;;;;;;13.10;9.25;;;;;;;;;;5111202;28;20179;-50
2021/01/11 13:21:05;;;;;;;11.13;8.65;;;;;;;;;;5100555;28;20178;-48
2021/01/11 13:23:31;;;;;;;14.00;9.65;;;;;;;;;;5090750;28;20167;-48
2021/01/11 13:25:57;;;;;;;14.83;10.57;;;;;;;;;;5090233;28;20171;-49
2021/01/11 13:28:23;;;;;;;20.20;10.77;;;;;;;;;;5090568;28;20577;-50
2021/01/11 13:30:49;;;;;;;11.73;10.20;;;;;;;;;;5090540;28;20396;-49
2021/01/11 13:33:15;;;;;;;18.77;10.47;;;;;;;;;;5090672;28;20162;-49
2021/01/11 13:35:41;;;;;;;12.05;9.43;;;;;;;;;;5090039;28;20427;-51
2021/01/11 13:38:08;;;;;;;11.40;8.70;;;;;;;;;;5090184;28;20190;-50
2021/01/11 13:40:34;;;;;;;12.70;8.32;;;;;;;;;;5090554;28;20820;-50
2021/01/11 13:43:00;;;;;;;13.93;8.90;;;;;;;;;;5090309;28;20199;-50
2021/01/11 13:45:26;;;;;;;13.88;8.70;;;;;;;;;;5090171;28;20167;-50
2021/01/11 13:47:52;;;;;;;15.67;9.53;;;;;;;;;;5090155;28;20253;-50
2021/01/11 13:50:18;;;;;;;10.40;7.50;;;;;;;;;;5090401;28;20951;-52
2021/01/11 13:52:47;;;;;;;16.47;9.43;;;;;;;;;;5090335;28;20403;-53
2021/01/11 13:55:13;;;;;;;11.50;8.40;;;;;;;;;;5090303;28;20427;-53
2021/01/11 13:57:39;;;;;;;14.77;9.20;;;;;;;;;;5090534;28;20242;-48
2021/01/11 14:00:06;;;;;;;12.50;9.33;;;;;;;;;;5090327;28;20657;-48
2021/01/11 14:02:32;;;;;;;11.27;8.80;;;;;;;;;;5090502;28;20399;-52
2021/01/11 14:04:59;;;;;;;10.63;8.85;;;;;;;;;;5097356;28;20190;-51
2021/01/11 14:07:29;;;;;;;14.07;9.32;;;;;;;;;;5109408;28;20204;-48
2021/01/11 14:09:55;;;;;;;11.45;8.38;;;;;;;;;;5110477;28;20204;-49
2021/01/11 14:12:21;;;;;;;12.80;9.45;;;;;;;;;;5110846;28;20173;-49
2021/01/11 14:14:47;;;;;;;13.80;9.30;;;;;;;;;;5110494;28;20162;-48
2021/01/11 14:17:13;;;;;;;12.20;8.73;;;;;;;;;;5110219;28;20205;-49
2021/01/11 14:19:39;;;;;;;12.50;9.65;;;;;;;;;;5110480;28;20169;-49
2021/01/11 14:22:05;;;;;;;13.75;9.40;;;;;;;;;;5110356;28;20173;-49
2021/01/11 14:24:32;;;;;;;11.82;8.60;;;;;;;;;;5110277;28;20178;-49